sensor_id;sensor_type;location;lat;lon;timestamp;P1;durP1;ratioP1;P2;durP2;ratioP2
20397;SDS011;10358;49.590;11.030;2023-05-08T00:02:24;5.50;;;4.27;;
20397;SDS011;10358;49.590;11.030;2023-05-08T00:04:49;4.73;;;4.00;;
20397;SDS011;10358;49.590;11.030;2023-05-08T00:07:15;6.03;;;4.20;;
20397;SDS011;10358;49.590;11.030;2023-05-08T00:09:40;6.20;;;4.53;;
20397;SDS011;10358;49.590;11.030;2023-05-08T00:12:06;5.00;;;4.20;;
20397;SDS011;10358;49.590;11.030;2023-05-08T00:14:32;7.50;;;4.27;;
20397;SDS011;10358;49.590;11.030;2023-05-08T00:16:57;5.37;;;4.37;;
20397;SDS011;10358;49.590;11.030;2023-05-08T00:19:23;5.93;;;4.60;;
20397;SDS011;10358;49.590;11.030;2023-05-08T00:21:48;6.73;;;4.37;;
20397;SDS011;10358;49.590;11.030;2023-05-08T00:24:14;7.80;;;4.40;;
20397;SDS011;10358;49.590;11.030;2023-05-08T00:26:39;6.93;;;4.37;;
20397;SDS011;10358;49.590;11.030;2023-05-08T00:29:06;6.27;;;4.60;;
20397;SDS011;10358;49.590;11.030;2023-05-08T00:31:31;4.67;;;4.10;;
20397;SDS011;10358;49.590;11.030;2023-05-08T00:33:57;6.37;;;4.60;;
20397;SDS011;10358;49.590;11.030;2023-05-08T00:36:22;7.13;;;4.37;;
20397;SDS011;10358;49.590;11.030;2023-05-08T00:38:48;6.43;;;4.50;;
20397;SDS011;10358;49.590;11.030;2023-05-08T00:41:13;5.93;;;4.60;;
20397;SDS011;10358;49.590;11.030;2023-05-08T00:43:40;5.30;;;4.40;;
20397;SDS011;10358;49.590;11.030;2023-05-08T00:46:06;6.40;;;4.43;;
20397;SDS011;10358;49.590;11.030;2023-05-08T00:48:34;5.00;;;4.20;;
20397;SDS011;10358;49.590;11.030;2023-05-08T00:51:01;5.90;;;4.60;;
20397;SDS011;10358;49.590;11.030;2023-05-08T00:53:29;5.30;;;4.30;;
20397;SDS011;10358;49.590;11.030;2023-05-08T00:55:57;5.00;;;4.23;;
20397;SDS011;10358;49.590;11.030;2023-05-08T00:58:23;5.23;;;4.30;;
20397;SDS011;10358;49.590;11.030;2023-05-08T01:00:51;5.90;;;4.47;;
20397;SDS011;10358;49.590;11.030;2023-05-08T01:03:20;6.13;;;4.30;;
20397;SDS011;10358;49.590;11.030;2023-05-08T01:05:47;5.50;;;4.30;;
20397;SDS011;10358;49.590;11.030;2023-05-08T01:08:13;5.80;;;4.57;;
20397;SDS011;10358;49.590;11.030;2023-05-08T01:10:44;5.77;;;4.50;;
20397;SDS011;10358;49.590;11.030;2023-05-08T01:13:41;6.47;;;4.70;;
20397;SDS011;10358;49.590;11.030;2023-05-08T01:16:28;5.53;;;4.40;;
20397;SDS011;10358;49.590;11.030;2023-05-08T01:21:53;6.50;;;4.80;;
20397;SDS011;10358;49.590;11.030;2023-05-08T01:24:40;6.40;;;4.37;;
20397;SDS011;10358;49.590;11.030;2023-05-08T01:32:57;7.10;;;4.53;;
20397;SDS011;10358;49.590;11.030;2023-05-08T01:35:31;5.20;;;4.33;;
20397;SDS011;10358;49.590;11.030;2023-05-08T01:38:13;6.13;;;4.53;;
20397;SDS011;10358;49.590;11.030;2023-05-08T01:40:53;5.27;;;4.20;;
20397;SDS011;10358;49.590;11.030;2023-05-08T01:43:34;6.17;;;4.27;;
20397;SDS011;10358;49.590;11.030;2023-05-08T01:46:12;4.83;;;3.80;;
20397;SDS011;10358;49.590;11.030;2023-05-08T01:48:50;5.87;;;4.27;;
20397;SDS011;10358;49.590;11.030;2023-05-08T01:51:28;6.07;;;4.33;;
20397;SDS011;10358;49.590;11.030;2023-05-08T01:54:01;5.37;;;4.50;;
20397;SDS011;10358;49.590;11.030;2023-05-08T01:56:30;5.20;;;4.37;;
20397;SDS011;10358;49.590;11.030;2023-05-08T01:58:56;6.27;;;4.43;;
20397;SDS011;10358;49.590;11.030;2023-05-08T02:01:24;6.43;;;4.77;;
20397;SDS011;10358;49.590;11.030;2023-05-08T02:03:53;5.23;;;4.27;;
20397;SDS011;10358;49.590;11.030;2023-05-08T02:06:20;5.07;;;4.10;;
20397;SDS011;10358;49.590;11.030;2023-05-08T02:08:46;4.73;;;4.23;;
20397;SDS011;10358;49.590;11.030;2023-05-08T02:11:13;5.10;;;4.20;;
20397;SDS011;10358;49.590;11.030;2023-05-08T02:13:40;7.23;;;4.80;;
20397;SDS011;10358;49.590;11.030;2023-05-08T02:16:08;6.37;;;4.37;;
20397;SDS011;10358;49.590;11.030;2023-05-08T02:18:36;5.93;;;4.53;;
20397;SDS011;10358;49.590;11.030;2023-05-08T02:21:04;4.23;;;3.83;;
20397;SDS011;10358;49.590;11.030;2023-05-08T02:23:31;5.23;;;4.37;;
20397;SDS011;10358;49.590;11.030;2023-05-08T02:25:58;5.60;;;4.23;;
20397;SDS011;10358;49.590;11.030;2023-05-08T02:28:26;6.13;;;4.47;;
20397;SDS011;10358;49.590;11.030;2023-05-08T02:30:53;6.00;;;3.97;;
20397;SDS011;10358;49.590;11.030;2023-05-08T02:33:20;7.20;;;4.10;;
20397;SDS011;10358;49.590;11.030;2023-05-08T02:35:46;5.03;;;4.47;;
20397;SDS011;10358;49.590;11.030;2023-05-08T02:38:14;5.17;;;4.47;;
20397;SDS011;10358;49.590;11.030;2023-05-08T02:40:45;5.40;;;3.97;;
20397;SDS011;10358;49.590;11.030;2023-05-08T02:43:13;5.83;;;4.47;;
20397;SDS011;10358;49.590;11.030;2023-05-08T02:45:44;5.03;;;4.27;;
20397;SDS011;10358;49.590;11.030;2023-05-08T02:48:22;5.00;;;4.30;;
20397;SDS011;10358;49.590;11.030;2023-05-08T02:50:59;7.87;;;4.73;;
20397;SDS011;10358;49.590;11.030;2023-05-08T02:53:36;5.83;;;4.33;;
20397;SDS011;10358;49.590;11.030;2023-05-08T02:56:09;5.43;;;4.10;;
20397;SDS011;10358;49.590;11.030;2023-05-08T03:03:44;5.80;;;4.43;;
20397;SDS011;10358;49.590;11.030;2023-05-08T03:06:17;5.13;;;4.40;;
20397;SDS011;10358;49.590;11.030;2023-05-08T03:08:45;7.03;;;4.60;;
20397;SDS011;10358;49.590;11.030;2023-05-08T03:11:14;6.87;;;4.53;;
20397;SDS011;10358;49.590;11.030;2023-05-08T03:13:43;6.50;;;4.50;;
20397;SDS011;10358;49.590;11.030;2023-05-08T03:16:16;6.97;;;4.20;;
20397;SDS011;10358;49.590;11.030;2023-05-08T03:18:55;5.53;;;4.23;;
20397;SDS011;10358;49.590;11.030;2023-05-08T03:21:25;5.97;;;4.63;;
20397;SDS011;10358;49.590;11.030;2023-05-08T03:23:54;6.17;;;4.80;;
20397;SDS011;10358;49.590;11.030;2023-05-08T03:26:22;7.93;;;5.00;;
20397;SDS011;10358;49.590;11.030;2023-05-08T03:28:49;6.70;;;4.93;;
20397;SDS011;10358;49.590;11.030;2023-05-08T03:31:16;6.93;;;4.50;;
20397;SDS011;10358;49.590;11.030;2023-05-08T03:33:45;5.83;;;4.63;;
20397;SDS011;10358;49.590;11.030;2023-05-08T03:36:12;6.47;;;4.87;;
20397;SDS011;10358;49.590;11.030;2023-05-08T03:38:38;6.03;;;4.90;;
20397;SDS011;10358;49.590;11.030;2023-05-08T03:41:04;5.87;;;4.43;;
20397;SDS011;10358;49.590;11.030;2023-05-08T03:43:30;6.20;;;4.70;;
20397;SDS011;10358;49.590;11.030;2023-05-08T03:45:56;6.37;;;5.10;;
20397;SDS011;10358;49.590;11.030;2023-05-08T03:48:22;7.07;;;5.03;;
20397;SDS011;10358;49.590;11.030;2023-05-08T03:50:49;5.73;;;4.77;;
20397;SDS011;10358;49.590;11.030;2023-05-08T03:53:16;6.90;;;5.10;;
20397;SDS011;10358;49.590;11.030;2023-05-08T03:55:41;7.60;;;5.30;;
20397;SDS011;10358;49.590;11.030;2023-05-08T03:58:10;6.80;;;4.80;;
20397;SDS011;10358;49.590;11.030;2023-05-08T04:03:35;9.17;;;5.40;;
20397;SDS011;10358;49.590;11.030;2023-05-08T04:06:15;6.83;;;5.27;;
20397;SDS011;10358;49.590;11.030;2023-05-08T04:08:52;6.27;;;5.20;;
20397;SDS011;10358;49.590;11.030;2023-05-08T04:11:29;8.47;;;5.43;;
20397;SDS011;10358;49.590;11.030;2023-05-08T04:14:04;7.60;;;5.20;;
20397;SDS011;10358;49.590;11.030;2023-05-08T04:16:34;10.23;;;5.63;;
20397;SDS011;10358;49.590;11.030;2023-05-08T04:19:05;8.93;;;5.80;;
20397;SDS011;10358;49.590;11.030;2023-05-08T04:21:35;5.77;;;4.90;;
20397;SDS011;10358;49.590;11.030;2023-05-08T04:24:03;7.10;;;5.67;;
20397;SDS011;10358;49.590;11.030;2023-05-08T04:26:31;7.30;;;5.57;;
20397;SDS011;10358;49.590;11.030;2023-05-08T04:28:57;7.47;;;5.80;;
20397;SDS011;10358;49.590;11.030;2023-05-08T04:31:23;7.10;;;5.70;;
20397;SDS011;10358;49.590;11.030;2023-05-08T04:33:50;6.70;;;5.03;;
20397;SDS011;10358;49.590;11.030;2023-05-08T04:36:16;7.00;;;5.47;;
20397;SDS011;10358;49.590;11.030;2023-05-08T04:38:42;6.87;;;5.30;;
20397;SDS011;10358;49.590;11.030;2023-05-08T04:41:07;7.00;;;5.73;;
20397;SDS011;10358;49.590;11.030;2023-05-08T04:43:34;7.60;;;5.60;;
20397;SDS011;10358;49.590;11.030;2023-05-08T04:46:00;8.20;;;5.83;;
20397;SDS011;10358;49.590;11.030;2023-05-08T04:48:25;7.93;;;5.80;;
20397;SDS011;10358;49.590;11.030;2023-05-08T04:50:51;6.97;;;5.40;;
20397;SDS011;10358;49.590;11.030;2023-05-08T04:53:16;8.13;;;5.60;;
20397;SDS011;10358;49.590;11.030;2023-05-08T04:55:42;6.63;;;5.47;;
20397;SDS011;10358;49.590;11.030;2023-05-08T04:58:09;7.87;;;5.30;;
20397;SDS011;10358;49.590;11.030;2023-05-08T05:00:35;7.50;;;5.57;;
20397;SDS011;10358;49.590;11.030;2023-05-08T05:03:00;6.93;;;5.37;;
20397;SDS011;10358;49.590;11.030;2023-05-08T05:05:26;6.00;;;5.40;;
20397;SDS011;10358;49.590;11.030;2023-05-08T05:07:52;6.57;;;5.43;;
20397;SDS011;10358;49.590;11.030;2023-05-08T05:10:17;6.97;;;5.50;;
20397;SDS011;10358;49.590;11.030;2023-05-08T05:12:43;6.30;;;5.30;;
20397;SDS011;10358;49.590;11.030;2023-05-08T05:15:08;7.27;;;5.60;;
20397;SDS011;10358;49.590;11.030;2023-05-08T05:17:34;8.80;;;6.33;;
20397;SDS011;10358;49.590;11.030;2023-05-08T05:20:00;9.17;;;5.50;;
20397;SDS011;10358;49.590;11.030;2023-05-08T05:22:26;6.33;;;5.43;;
20397;SDS011;10358;49.590;11.030;2023-05-08T05:24:52;8.07;;;5.97;;
20397;SDS011;10358;49.590;11.030;2023-05-08T05:27:18;7.63;;;5.63;;
20397;SDS011;10358;49.590;11.030;2023-05-08T05:29:43;8.37;;;6.10;;
20397;SDS011;10358;49.590;11.030;2023-05-08T05:32:09;6.13;;;5.23;;
20397;SDS011;10358;49.590;11.030;2023-05-08T05:34:35;7.17;;;5.97;;
20397;SDS011;10358;49.590;11.030;2023-05-08T05:37:01;8.50;;;5.97;;
20397;SDS011;10358;49.590;11.030;2023-05-08T05:39:26;7.80;;;5.60;;
20397;SDS011;10358;49.590;11.030;2023-05-08T05:41:52;8.47;;;5.83;;
20397;SDS011;10358;49.590;11.030;2023-05-08T05:44:17;7.17;;;5.70;;
20397;SDS011;10358;49.590;11.030;2023-05-08T05:46:43;6.47;;;5.23;;
20397;SDS011;10358;49.590;11.030;2023-05-08T05:49:09;7.20;;;5.60;;
20397;SDS011;10358;49.590;11.030;2023-05-08T05:51:36;9.57;;;5.70;;
20397;SDS011;10358;49.590;11.030;2023-05-08T05:54:01;7.77;;;5.80;;
20397;SDS011;10358;49.590;11.030;2023-05-08T05:56:27;8.93;;;5.73;;
20397;SDS011;10358;49.590;11.030;2023-05-08T05:58:52;7.73;;;6.07;;
20397;SDS011;10358;49.590;11.030;2023-05-08T06:01:18;6.33;;;5.53;;
20397;SDS011;10358;49.590;11.030;2023-05-08T06:03:44;7.03;;;5.80;;
20397;SDS011;10358;49.590;11.030;2023-05-08T06:06:09;7.67;;;5.40;;
20397;SDS011;10358;49.590;11.030;2023-05-08T06:08:35;7.13;;;5.57;;
20397;SDS011;10358;49.590;11.030;2023-05-08T06:11:00;9.33;;;5.40;;
20397;SDS011;10358;49.590;11.030;2023-05-08T06:13:26;7.77;;;5.47;;
20397;SDS011;10358;49.590;11.030;2023-05-08T06:15:55;7.10;;;5.23;;
20397;SDS011;10358;49.590;11.030;2023-05-08T06:18:21;8.87;;;6.17;;
20397;SDS011;10358;49.590;11.030;2023-05-08T06:20:46;11.33;;;5.70;;
20397;SDS011;10358;49.590;11.030;2023-05-08T06:23:12;8.50;;;5.77;;
20397;SDS011;10358;49.590;11.030;2023-05-08T06:25:38;9.73;;;5.70;;
20397;SDS011;10358;49.590;11.030;2023-05-08T06:28:04;7.17;;;5.63;;
20397;SDS011;10358;49.590;11.030;2023-05-08T06:30:31;7.93;;;6.03;;
20397;SDS011;10358;49.590;11.030;2023-05-08T06:32:58;9.80;;;5.32;;
20397;SDS011;10358;49.590;11.030;2023-05-08T06:35:23;7.60;;;5.60;;
20397;SDS011;10358;49.590;11.030;2023-05-08T06:37:49;7.57;;;5.50;;
20397;SDS011;10358;49.590;11.030;2023-05-08T06:40:15;7.87;;;5.93;;
20397;SDS011;10358;49.590;11.030;2023-05-08T06:42:40;6.82;;;5.32;;
20397;SDS011;10358;49.590;11.030;2023-05-08T06:45:07;6.18;;;5.10;;
20397;SDS011;10358;49.590;11.030;2023-05-08T06:47:33;8.10;;;5.53;;
20397;SDS011;10358;49.590;11.030;2023-05-08T06:49:59;6.75;;;5.43;;
20397;SDS011;10358;49.590;11.030;2023-05-08T06:52:24;7.03;;;5.23;;
20397;SDS011;10358;49.590;11.030;2023-05-08T06:54:50;9.95;;;5.65;;
20397;SDS011;10358;49.590;11.030;2023-05-08T06:57:16;7.75;;;5.68;;
20397;SDS011;10358;49.590;11.030;2023-05-08T06:59:41;8.70;;;5.50;;
20397;SDS011;10358;49.590;11.030;2023-05-08T07:02:07;7.55;;;5.20;;
20397;SDS011;10358;49.590;11.030;2023-05-08T07:04:34;6.82;;;5.05;;
20397;SDS011;10358;49.590;11.030;2023-05-08T07:06:59;7.50;;;5.50;;
20397;SDS011;10358;49.590;11.030;2023-05-08T07:09:25;8.52;;;5.43;;
20397;SDS011;10358;49.590;11.030;2023-05-08T07:11:51;7.63;;;5.57;;
20397;SDS011;10358;49.590;11.030;2023-05-08T07:14:16;7.17;;;5.40;;
20397;SDS011;10358;49.590;11.030;2023-05-08T07:16:42;7.07;;;5.35;;
20397;SDS011;10358;49.590;11.030;2023-05-08T07:19:07;8.60;;;5.03;;
20397;SDS011;10358;49.590;11.030;2023-05-08T07:21:33;11.05;;;5.60;;
20397;SDS011;10358;49.590;11.030;2023-05-08T07:23:58;6.38;;;5.10;;
20397;SDS011;10358;49.590;11.030;2023-05-08T07:26:24;6.75;;;5.10;;
20397;SDS011;10358;49.590;11.030;2023-05-08T07:28:50;6.32;;;5.07;;
20397;SDS011;10358;49.590;11.030;2023-05-08T07:31:17;5.78;;;4.72;;
20397;SDS011;10358;49.590;11.030;2023-05-08T07:33:43;5.70;;;4.80;;
20397;SDS011;10358;49.590;11.030;2023-05-08T07:36:10;6.30;;;5.30;;
20397;SDS011;10358;49.590;11.030;2023-05-08T07:38:36;6.22;;;5.10;;
20397;SDS011;10358;49.590;11.030;2023-05-08T07:41:02;6.43;;;4.93;;
20397;SDS011;10358;49.590;11.030;2023-05-08T07:43:29;7.40;;;5.68;;
20397;SDS011;10358;49.590;11.030;2023-05-08T07:45:55;7.20;;;5.53;;
20397;SDS011;10358;49.590;11.030;2023-05-08T07:48:21;8.52;;;5.03;;
20397;SDS011;10358;49.590;11.030;2023-05-08T07:50:48;6.70;;;5.47;;
20397;SDS011;10358;49.590;11.030;2023-05-08T07:53:16;7.20;;;5.70;;
20397;SDS011;10358;49.590;11.030;2023-05-08T07:55:41;10.10;;;5.35;;
20397;SDS011;10358;49.590;11.030;2023-05-08T07:58:07;7.05;;;5.35;;
20397;SDS011;10358;49.590;11.030;2023-05-08T08:00:33;6.95;;;5.28;;
20397;SDS011;10358;49.590;11.030;2023-05-08T08:02:59;11.13;;;5.97;;
20397;SDS011;10358;49.590;11.030;2023-05-08T08:05:24;7.72;;;5.60;;
20397;SDS011;10358;49.590;11.030;2023-05-08T08:07:50;7.13;;;5.47;;
20397;SDS011;10358;49.590;11.030;2023-05-08T08:10:16;6.68;;;5.13;;
20397;SDS011;10358;49.590;11.030;2023-05-08T08:12:41;6.93;;;5.10;;
20397;SDS011;10358;49.590;11.030;2023-05-08T08:15:07;6.75;;;5.30;;
20397;SDS011;10358;49.590;11.030;2023-05-08T08:17:33;7.95;;;5.38;;
20397;SDS011;10358;49.590;11.030;2023-05-08T08:19:58;6.15;;;5.13;;
20397;SDS011;10358;49.590;11.030;2023-05-08T08:22:24;7.72;;;5.05;;
20397;SDS011;10358;49.590;11.030;2023-05-08T08:24:50;6.22;;;5.15;;
20397;SDS011;10358;49.590;11.030;2023-05-08T08:27:16;7.00;;;5.63;;
20397;SDS011;10358;49.590;11.030;2023-05-08T08:29:41;7.20;;;5.57;;
20397;SDS011;10358;49.590;11.030;2023-05-08T08:32:07;8.52;;;5.38;;
20397;SDS011;10358;49.590;11.030;2023-05-08T08:34:33;7.47;;;5.20;;
20397;SDS011;10358;49.590;11.030;2023-05-08T08:36:59;9.63;;;5.38;;
20397;SDS011;10358;49.590;11.030;2023-05-08T08:39:24;6.60;;;4.90;;
20397;SDS011;10358;49.590;11.030;2023-05-08T08:41:50;6.35;;;5.00;;
20397;SDS011;10358;49.590;11.030;2023-05-08T08:44:15;5.88;;;5.18;;
20397;SDS011;10358;49.590;11.030;2023-05-08T08:46:49;10.32;;;5.30;;
20397;SDS011;10358;49.590;11.030;2023-05-08T08:49:22;7.63;;;5.50;;
20397;SDS011;10358;49.590;11.030;2023-05-08T08:51:51;8.88;;;5.32;;
20397;SDS011;10358;49.590;11.030;2023-05-08T08:54:20;8.48;;;5.13;;
20397;SDS011;10358;49.590;11.030;2023-05-08T08:56:48;9.35;;;5.65;;
20397;SDS011;10358;49.590;11.030;2023-05-08T08:59:16;6.35;;;4.68;;
20397;SDS011;10358;49.590;11.030;2023-05-08T09:01:49;7.15;;;5.38;;
20397;SDS011;10358;49.590;11.030;2023-05-08T09:04:21;7.28;;;5.53;;
20397;SDS011;10358;49.590;11.030;2023-05-08T09:06:51;7.43;;;5.45;;
20397;SDS011;10358;49.590;11.030;2023-05-08T09:09:17;9.48;;;5.30;;
20397;SDS011;10358;49.590;11.030;2023-05-08T09:11:43;7.10;;;5.57;;
20397;SDS011;10358;49.590;11.030;2023-05-08T09:14:10;7.45;;;5.35;;
20397;SDS011;10358;49.590;11.030;2023-05-08T09:16:36;5.80;;;5.20;;
20397;SDS011;10358;49.590;11.030;2023-05-08T09:19:02;6.55;;;5.30;;
20397;SDS011;10358;49.590;11.030;2023-05-08T09:21:28;5.85;;;5.00;;
20397;SDS011;10358;49.590;11.030;2023-05-08T09:23:57;7.43;;;5.35;;
20397;SDS011;10358;49.590;11.030;2023-05-08T09:26:34;7.43;;;5.70;;
20397;SDS011;10358;49.590;11.030;2023-05-08T09:29:14;9.48;;;5.20;;
20397;SDS011;10358;49.590;11.030;2023-05-08T09:31:41;6.57;;;5.13;;
20397;SDS011;10358;49.590;11.030;2023-05-08T09:34:21;8.95;;;5.40;;
20397;SDS011;10358;49.590;11.030;2023-05-08T09:36:48;8.15;;;5.43;;
20397;SDS011;10358;49.590;11.030;2023-05-08T09:39:14;11.18;;;5.93;;
20397;SDS011;10358;49.590;11.030;2023-05-08T09:41:59;8.02;;;5.50;;
20397;SDS011;10358;49.590;11.030;2023-05-08T09:44:25;6.38;;;5.20;;
20397;SDS011;10358;49.590;11.030;2023-05-08T09:46:51;6.85;;;5.03;;
20397;SDS011;10358;49.590;11.030;2023-05-08T09:49:34;6.95;;;5.13;;
20397;SDS011;10358;49.590;11.030;2023-05-08T09:52:00;7.13;;;5.47;;
20397;SDS011;10358;49.590;11.030;2023-05-08T09:54:26;6.10;;;5.15;;
20397;SDS011;10358;49.590;11.030;2023-05-08T09:56:51;8.02;;;5.88;;
20397;SDS011;10358;49.590;11.030;2023-05-08T09:59:21;7.70;;;5.72;;
20397;SDS011;10358;49.590;11.030;2023-05-08T10:01:51;7.55;;;5.18;;
20397;SDS011;10358;49.590;11.030;2023-05-08T10:04:34;7.82;;;5.53;;
20397;SDS011;10358;49.590;11.030;2023-05-08T10:07:01;8.00;;;5.28;;
20397;SDS011;10358;49.590;11.030;2023-05-08T10:09:27;7.13;;;4.80;;
20397;SDS011;10358;49.590;11.030;2023-05-08T10:11:53;7.28;;;5.50;;
20397;SDS011;10358;49.590;11.030;2023-05-08T10:14:20;5.82;;;5.13;;
20397;SDS011;10358;49.590;11.030;2023-05-08T10:16:47;9.13;;;5.30;;
20397;SDS011;10358;49.590;11.030;2023-05-08T10:19:14;6.43;;;4.97;;
20397;SDS011;10358;49.590;11.030;2023-05-08T10:21:44;5.13;;;4.60;;
20397;SDS011;10358;49.590;11.030;2023-05-08T10:24:33;6.30;;;5.00;;
20397;SDS011;10358;49.590;11.030;2023-05-08T10:32:18;10.38;;;5.20;;
20397;SDS011;10358;49.590;11.030;2023-05-08T10:34:46;7.10;;;5.20;;
20397;SDS011;10358;49.590;11.030;2023-05-08T10:37:17;5.85;;;4.88;;
20397;SDS011;10358;49.590;11.030;2023-05-08T10:39:44;6.47;;;5.30;;
20397;SDS011;10358;49.590;11.030;2023-05-08T10:42:12;7.03;;;5.45;;
20397;SDS011;10358;49.590;11.030;2023-05-08T10:44:38;7.85;;;5.00;;
20397;SDS011;10358;49.590;11.030;2023-05-08T10:47:26;8.55;;;5.30;;
20397;SDS011;10358;49.590;11.030;2023-05-08T10:52:56;6.93;;;5.22;;
20397;SDS011;10358;49.590;11.030;2023-05-08T10:55:32;7.85;;;5.43;;
20397;SDS011;10358;49.590;11.030;2023-05-08T10:58:01;7.15;;;5.45;;
20397;SDS011;10358;49.590;11.030;2023-05-08T11:03:25;6.65;;;5.20;;
20397;SDS011;10358;49.590;11.030;2023-05-08T11:05:52;11.00;;;5.28;;
20397;SDS011;10358;49.590;11.030;2023-05-08T11:08:22;6.80;;;5.30;;
20397;SDS011;10358;49.590;11.030;2023-05-08T11:10:51;6.13;;;4.90;;
20397;SDS011;10358;49.590;11.030;2023-05-08T11:13:28;6.18;;;5.05;;
20397;SDS011;10358;49.590;11.030;2023-05-08T11:15:57;9.93;;;5.32;;
20397;SDS011;10358;49.590;11.030;2023-05-08T11:18:23;5.88;;;4.95;;
20397;SDS011;10358;49.590;11.030;2023-05-08T11:20:57;7.15;;;5.78;;
20397;SDS011;10358;49.590;11.030;2023-05-08T11:23:32;6.68;;;5.50;;
20397;SDS011;10358;49.590;11.030;2023-05-08T11:26:06;6.43;;;5.18;;
20397;SDS011;10358;49.590;11.030;2023-05-08T11:28:38;9.25;;;5.40;;
20397;SDS011;10358;49.590;11.030;2023-05-08T11:31:20;6.45;;;5.07;;
20397;SDS011;10358;49.590;11.030;2023-05-08T11:33:46;5.88;;;5.00;;
20397;SDS011;10358;49.590;11.030;2023-05-08T11:36:12;6.15;;;5.00;;
20397;SDS011;10358;49.590;11.030;2023-05-08T11:38:39;6.75;;;5.00;;
20397;SDS011;10358;49.590;11.030;2023-05-08T11:41:20;7.75;;;5.70;;
20397;SDS011;10358;49.590;11.030;2023-05-08T11:46:37;6.40;;;5.28;;
20397;SDS011;10358;49.590;11.030;2023-05-08T11:49:14;7.57;;;5.70;;
20397;SDS011;10358;49.590;11.030;2023-05-08T11:51:41;9.15;;;5.90;;
20397;SDS011;10358;49.590;11.030;2023-05-08T11:54:12;6.50;;;5.05;;
20397;SDS011;10358;49.590;11.030;2023-05-08T11:56:44;5.90;;;4.93;;
20397;SDS011;10358;49.590;11.030;2023-05-08T11:59:10;7.43;;;5.10;;
20397;SDS011;10358;49.590;11.030;2023-05-08T12:01:37;8.52;;;5.68;;
20397;SDS011;10358;49.590;11.030;2023-05-08T12:04:04;11.40;;;5.75;;
20397;SDS011;10358;49.590;11.030;2023-05-08T12:06:31;7.28;;;5.30;;
20397;SDS011;10358;49.590;11.030;2023-05-08T12:08:58;8.20;;;4.97;;
20397;SDS011;10358;49.590;11.030;2023-05-08T12:11:25;7.97;;;5.18;;
20397;SDS011;10358;49.590;11.030;2023-05-08T12:13:51;6.72;;;5.25;;
20397;SDS011;10358;49.590;11.030;2023-05-08T12:16:21;6.53;;;4.88;;
20397;SDS011;10358;49.590;11.030;2023-05-08T12:18:48;6.35;;;5.25;;
20397;SDS011;10358;49.590;11.030;2023-05-08T12:21:15;8.23;;;5.00;;
20397;SDS011;10358;49.590;11.030;2023-05-08T12:23:41;9.73;;;5.43;;
20397;SDS011;10358;49.590;11.030;2023-05-08T12:26:07;7.20;;;4.97;;
20397;SDS011;10358;49.590;11.030;2023-05-08T12:28:32;6.15;;;4.82;;
20397;SDS011;10358;49.590;11.030;2023-05-08T12:30:58;5.32;;;4.45;;
20397;SDS011;10358;49.590;11.030;2023-05-08T12:33:24;6.38;;;4.70;;
20397;SDS011;10358;49.590;11.030;2023-05-08T12:35:51;6.55;;;4.95;;
20397;SDS011;10358;49.590;11.030;2023-05-08T12:38:16;5.53;;;4.68;;
20397;SDS011;10358;49.590;11.030;2023-05-08T12:40:46;9.80;;;4.70;;
20397;SDS011;10358;49.590;11.030;2023-05-08T12:43:17;7.88;;;5.13;;
20397;SDS011;10358;49.590;11.030;2023-05-08T12:45:42;8.98;;;4.43;;
20397;SDS011;10358;49.590;11.030;2023-05-08T12:48:09;6.32;;;4.75;;
20397;SDS011;10358;49.590;11.030;2023-05-08T12:50:54;7.13;;;5.03;;
20397;SDS011;10358;49.590;11.030;2023-05-08T12:53:28;6.80;;;4.40;;
20397;SDS011;10358;49.590;11.030;2023-05-08T12:55:59;5.68;;;4.88;;
20397;SDS011;10358;49.590;11.030;2023-05-08T12:58:26;7.72;;;4.80;;
20397;SDS011;10358;49.590;11.030;2023-05-08T13:01:02;5.40;;;4.30;;
20397;SDS011;10358;49.590;11.030;2023-05-08T13:03:37;6.53;;;4.90;;
20397;SDS011;10358;49.590;11.030;2023-05-08T13:06:04;5.10;;;4.60;;
20397;SDS011;10358;49.590;11.030;2023-05-08T13:11:00;5.28;;;4.78;;
20397;SDS011;10358;49.590;11.030;2023-05-08T13:13:29;6.30;;;3.97;;
20397;SDS011;10358;49.590;11.030;2023-05-08T13:15:56;6.63;;;4.28;;
20397;SDS011;10358;49.590;11.030;2023-05-08T13:18:25;5.50;;;4.40;;
20397;SDS011;10358;49.590;11.030;2023-05-08T13:20:54;6.18;;;4.32;;
20397;SDS011;10358;49.590;11.030;2023-05-08T13:23:20;8.10;;;4.60;;
20397;SDS011;10358;49.590;11.030;2023-05-08T13:25:46;7.55;;;4.72;;
20397;SDS011;10358;49.590;11.030;2023-05-08T13:28:11;6.70;;;3.88;;
20397;SDS011;10358;49.590;11.030;2023-05-08T13:30:37;6.47;;;4.45;;
20397;SDS011;10358;49.590;11.030;2023-05-08T13:33:03;10.88;;;4.60;;
20397;SDS011;10358;49.590;11.030;2023-05-08T13:35:29;6.93;;;4.72;;
20397;SDS011;10358;49.590;11.030;2023-05-08T13:37:56;6.20;;;4.93;;
20397;SDS011;10358;49.590;11.030;2023-05-08T13:40:22;7.68;;;4.70;;
20397;SDS011;10358;49.590;11.030;2023-05-08T13:42:49;5.60;;;4.38;;
20397;SDS011;10358;49.590;11.030;2023-05-08T13:45:14;5.85;;;4.30;;
20397;SDS011;10358;49.590;11.030;2023-05-08T13:47:40;7.63;;;4.63;;
20397;SDS011;10358;49.590;11.030;2023-05-08T13:50:09;7.18;;;4.40;;
20397;SDS011;10358;49.590;11.030;2023-05-08T13:52:36;6.30;;;4.68;;
20397;SDS011;10358;49.590;11.030;2023-05-08T13:55:04;8.50;;;4.68;;
20397;SDS011;10358;49.590;11.030;2023-05-08T13:57:30;6.07;;;4.75;;
20397;SDS011;10358;49.590;11.030;2023-05-08T13:59:56;6.28;;;4.70;;
20397;SDS011;10358;49.590;11.030;2023-05-08T14:02:21;7.88;;;4.55;;
20397;SDS011;10358;49.590;11.030;2023-05-08T14:04:47;6.50;;;4.85;;
20397;SDS011;10358;49.590;11.030;2023-05-08T14:07:12;8.00;;;4.63;;
20397;SDS011;10358;49.590;11.030;2023-05-08T14:09:38;4.72;;;4.22;;
20397;SDS011;10358;49.590;11.030;2023-05-08T14:12:04;6.63;;;4.43;;
20397;SDS011;10358;49.590;11.030;2023-05-08T14:14:29;5.75;;;4.50;;
20397;SDS011;10358;49.590;11.030;2023-05-08T14:16:55;6.80;;;4.55;;
20397;SDS011;10358;49.590;11.030;2023-05-08T14:19:20;7.75;;;4.60;;
20397;SDS011;10358;49.590;11.030;2023-05-08T14:21:46;5.13;;;4.00;;
20397;SDS011;10358;49.590;11.030;2023-05-08T14:24:11;6.07;;;4.40;;
20397;SDS011;10358;49.590;11.030;2023-05-08T14:26:37;5.15;;;4.32;;
20397;SDS011;10358;49.590;11.030;2023-05-08T14:29:03;9.25;;;4.72;;
20397;SDS011;10358;49.590;11.030;2023-05-08T14:31:29;8.15;;;4.45;;
20397;SDS011;10358;49.590;11.030;2023-05-08T14:33:54;7.97;;;4.50;;
20397;SDS011;10358;49.590;11.030;2023-05-08T14:36:20;5.22;;;3.80;;
20397;SDS011;10358;49.590;11.030;2023-05-08T14:38:46;6.20;;;4.22;;
20397;SDS011;10358;49.590;11.030;2023-05-08T14:41:12;5.57;;;4.25;;
20397;SDS011;10358;49.590;11.030;2023-05-08T14:43:37;7.72;;;4.25;;
20397;SDS011;10358;49.590;11.030;2023-05-08T14:46:03;10.10;;;4.32;;
20397;SDS011;10358;49.590;11.030;2023-05-08T14:48:30;5.45;;;4.38;;
20397;SDS011;10358;49.590;11.030;2023-05-08T14:50:55;8.77;;;4.50;;
20397;SDS011;10358;49.590;11.030;2023-05-08T14:53:21;5.70;;;4.50;;
20397;SDS011;10358;49.590;11.030;2023-05-08T14:55:47;6.22;;;4.30;;
20397;SDS011;10358;49.590;11.030;2023-05-08T14:58:13;5.68;;;4.20;;
20397;SDS011;10358;49.590;11.030;2023-05-08T15:00:38;4.88;;;3.78;;
20397;SDS011;10358;49.590;11.030;2023-05-08T15:03:04;9.63;;;3.90;;
20397;SDS011;10358;49.590;11.030;2023-05-08T15:05:30;6.63;;;3.97;;
20397;SDS011;10358;49.590;11.030;2023-05-08T15:07:55;4.57;;;4.00;;
20397;SDS011;10358;49.590;11.030;2023-05-08T15:10:21;6.10;;;4.50;;
20397;SDS011;10358;49.590;11.030;2023-05-08T15:12:47;4.75;;;3.75;;